Time;durP1;ratioP1;P1;durP2;ratioP2;P2;SDS_P1;SDS_P2;PMS_P1;PMS_P2;Temp;Humidity;BMP_temperature;BMP_pressure;BME280_temperature;BME280_humidity;BME280_pressure;Samples;Min_cycle;Max_cycle;Signal;HPM_P1;HPM_P2
2023/07/03 00:00:48;;;;;;;14.50;10.30;;;22.50;47.80;;;;;;5016257;28;20211;-69
2023/07/03 00:03:15;;;;;;;14.57;10.38;;;22.50;47.80;;;;;;5011916;28;20231;-67
2023/07/03 00:05:43;;;;;;;15.18;10.25;;;22.50;47.80;;;;;;5033786;28;20708;-67
2023/07/03 00:08:10;;;;;;;13.23;10.10;;;22.40;47.70;;;;;;5016717;28;20196;-68
2023/07/03 00:10:37;;;;;;;15.65;10.10;;;22.40;47.70;;;;;;5033879;28;20196;-69
2023/07/03 00:13:04;;;;;;;14.02;10.07;;;22.40;47.70;;;;;;5016098;28;20571;-68
2023/07/03 00:15:33;;;;;;;13.23;9.80;;;22.40;47.80;;;;;;5015995;28;20200;-68
2023/07/03 00:18:01;;;;;;;14.85;10.63;;;22.40;47.80;;;;;;5033653;28;20192;-68
2023/07/03 00:20:28;;;;;;;11.65;9.13;;;22.40;48.00;;;;;;5033482;28;20203;-68
2023/07/03 00:22:56;;;;;;;15.45;10.77;;;22.40;47.80;;;;;;5015896;28;20203;-67
2023/07/03 00:25:23;;;;;;;13.55;9.55;;;22.40;48.00;;;;;;5015716;28;20218;-67
2023/07/03 00:27:50;;;;;;;13.23;10.05;;;22.40;48.10;;;;;;5015715;28;20304;-67
2023/07/03 00:30:18;;;;;;;12.90;9.43;;;22.40;48.10;;;;;;5015808;28;20354;-67
2023/07/03 00:32:46;;;;;;;14.70;9.95;;;22.40;48.10;;;;;;5033373;28;20330;-67
2023/07/03 00:35:15;;;;;;;13.20;10.10;;;22.40;48.10;;;;;;5015913;28;20220;-68
2023/07/03 00:37:43;;;;;;;15.82;10.18;;;22.40;48.00;;;;;;5016006;28;20200;-68
2023/07/03 00:40:13;;;;;;;15.50;9.85;;;22.40;48.00;;;;;;5016501;28;20617;-67
2023/07/03 00:42:40;;;;;;;15.52;10.38;;;22.40;48.20;;;;;;5033707;28;20188;-67
2023/07/03 00:45:11;;;;;;;14.57;10.20;;;22.30;48.20;;;;;;5015590;28;20244;-67
2023/07/03 00:47:38;;;;;;;15.70;9.85;;;22.30;48.20;;;;;;5033107;28;20216;-67
2023/07/03 00:50:08;;;;;;;14.35;9.77;;;22.30;48.20;;;;;;5033482;28;20282;-67
2023/07/03 00:52:36;;;;;;;14.98;10.40;;;22.30;48.30;;;;;;5015474;28;20649;-67
2023/07/03 00:55:03;;;;;;;14.25;10.77;;;22.30;48.40;;;;;;5033161;28;20602;-67
2023/07/03 00:57:30;;;;;;;14.55;10.43;;;22.30;48.40;;;;;;5015688;28;20188;-67
2023/07/03 00:59:57;;;;;;;13.88;10.20;;;22.30;48.40;;;;;;5015623;28;20559;-68
2023/07/03 01:02:27;;;;;;;13.52;9.90;;;22.30;48.40;;;;;;5033097;28;20206;-67
2023/07/03 01:04:57;;;;;;;12.35;9.70;;;22.30;49.00;;;;;;5028922;28;20658;-68
2023/07/03 01:07:27;;;;;;;13.63;10.13;;;22.30;48.50;;;;;;5015350;28;20212;-67
2023/07/03 01:09:56;;;;;;;14.23;10.38;;;22.20;48.40;;;;;;5033376;28;20207;-67
2023/07/03 01:12:25;;;;;;;12.88;10.02;;;22.30;48.50;;;;;;5015347;28;20204;-68
2023/07/03 01:14:53;;;;;;;13.63;9.73;;;22.20;49.20;;;;;;5015233;28;20212;-67
2023/07/03 01:17:22;;;;;;;14.07;9.82;;;22.20;48.60;;;;;;5015347;28;20284;-67
2023/07/03 01:19:49;;;;;;;14.10;9.98;;;22.20;48.50;;;;;;5015287;28;20254;-67
2023/07/03 01:22:19;;;;;;;13.55;9.95;;;22.20;48.60;;;;;;5015863;28;20210;-67
2023/07/03 01:24:50;;;;;;;13.20;10.20;;;22.20;48.50;;;;;;5019289;28;20230;-67
2023/07/03 01:27:21;;;;;;;14.70;10.60;;;22.20;48.50;;;;;;5036656;28;20211;-67
2023/07/03 01:29:49;;;;;;;14.85;10.38;;;22.20;48.60;;;;;;5019099;28;20208;-67
2023/07/03 01:32:19;;;;;;;13.02;10.05;;;22.30;48.60;;;;;;5019316;28;20195;-68
2023/07/03 01:34:46;;;;;;;11.80;9.63;;;22.20;48.60;;;;;;5019107;28;20219;-68
2023/07/03 01:37:14;;;;;;;13.38;10.00;;;22.20;48.60;;;;;;5018971;28;20196;-67
2023/07/03 01:39:42;;;;;;;13.95;10.10;;;22.20;48.70;;;;;;5018601;28;20215;-67
2023/07/03 01:42:11;;;;;;;16.20;10.43;;;22.30;49.40;;;;;;5018652;28;20685;-67
2023/07/03 01:44:38;;;;;;;13.23;9.65;;;22.30;48.90;;;;;;5036581;28;20584;-67
2023/07/03 01:47:07;;;;;;;13.70;9.90;;;22.20;48.80;;;;;;5036857;28;20739;-69
2023/07/03 01:49:34;;;;;;;15.25;9.98;;;22.20;48.80;;;;;;5018625;28;20242;-67
2023/07/03 01:52:06;;;;;;;15.75;10.32;;;22.20;48.90;;;;;;5018689;28;20203;-67
2023/07/03 01:54:39;;;;;;;13.43;10.07;;;22.20;48.90;;;;;;5036216;28;20292;-67
2023/07/03 01:57:06;;;;;;;15.55;10.52;;;22.20;48.80;;;;;;5036489;28;20199;-67
2023/07/03 01:59:35;;;;;;;14.38;9.38;;;22.20;48.90;;;;;;5036125;28;20271;-67
2023/07/03 02:02:05;;;;;;;12.80;9.32;;;22.20;48.80;;;;;;5018370;28;20192;-67
2023/07/03 02:04:33;;;;;;;13.23;9.70;;;22.20;48.90;;;;;;5018324;28;20698;-67
2023/07/03 02:07:01;;;;;;;14.00;9.90;;;22.20;49.00;;;;;;5018209;28;20212;-67
2023/07/03 02:09:28;;;;;;;12.65;9.88;;;22.20;49.00;;;;;;5018259;28;20200;-67
2023/07/03 02:11:58;;;;;;;16.15;10.15;;;22.20;49.00;;;;;;5018200;28;20192;-67
2023/07/03 02:14:27;;;;;;;14.38;9.80;;;22.20;48.90;;;;;;5018225;28;20220;-68
2023/07/03 02:16:56;;;;;;;13.60;10.45;;;22.20;48.80;;;;;;5018111;28;20212;-67
2023/07/03 02:19:28;;;;;;;13.07;9.85;;;22.20;48.70;;;;;;5018056;28;20209;-67
2023/07/03 02:21:56;;;;;;;13.80;10.15;;;22.20;48.70;;;;;;5018117;28;20199;-67
2023/07/03 02:24:23;;;;;;;14.88;9.95;;;22.20;48.70;;;;;;5017986;28;20267;-67
2023/07/03 02:26:52;;;;;;;13.15;10.02;;;22.20;48.70;;;;;;5017814;28;20235;-67
2023/07/03 02:29:19;;;;;;;14.02;9.90;;;22.20;48.70;;;;;;5017930;28;20203;-67
2023/07/03 02:31:46;;;;;;;14.75;10.52;;;22.20;48.60;;;;;;5017800;28;20207;-67
2023/07/03 02:34:17;;;;;;;12.48;10.13;;;22.20;48.50;;;;;;5035182;28;20258;-67
2023/07/03 02:36:45;;;;;;;13.50;10.38;;;22.20;48.50;;;;;;5035540;28;20191;-69
2023/07/03 02:39:12;;;;;;;13.60;10.07;;;22.20;48.50;;;;;;5017688;28;20295;-67
2023/07/03 02:41:40;;;;;;;14.82;10.30;;;22.20;48.50;;;;;;5017658;28;20212;-68
2023/07/03 02:44:08;;;;;;;13.93;10.10;;;22.20;48.50;;;;;;5018412;28;20223;-67
2023/07/03 02:46:36;;;;;;;14.75;10.18;;;22.20;48.30;;;;;;5017780;28;20208;-67
2023/07/03 02:49:04;;;;;;;14.35;10.00;;;22.20;48.20;;;;;;5017525;28;20254;-67
2023/07/03 02:51:32;;;;;;;14.70;10.02;;;22.20;48.40;;;;;;5017518;28;20203;-67
2023/07/03 02:54:04;;;;;;;14.65;10.30;;;22.20;48.30;;;;;;5017338;28;20266;-67
2023/07/03 02:56:31;;;;;;;15.23;10.25;;;22.20;48.20;;;;;;5017270;28;20222;-67
2023/07/03 02:58:59;;;;;;;14.52;9.93;;;22.20;48.10;;;;;;5017413;28;20573;-67
2023/07/03 03:01:31;;;;;;;14.93;10.65;;;22.20;48.20;;;;;;5017443;28;20249;-67
2023/07/03 03:03:59;;;;;;;14.68;10.77;;;22.20;48.30;;;;;;5017233;28;20220;-67
2023/07/03 03:06:26;;;;;;;17.15;10.30;;;22.20;48.00;;;;;;5017161;28;20225;-67
2023/07/03 03:08:55;;;;;;;14.55;9.88;;;22.20;48.00;;;;;;5017485;28;20731;-67
2023/07/03 03:11:23;;;;;;;14.13;10.25;;;22.20;47.90;;;;;;5017035;28;20723;-67
2023/07/03 03:13:54;;;;;;;13.70;10.40;;;22.20;47.90;;;;;;5017019;28;20220;-67
2023/07/03 03:16:21;;;;;;;13.95;10.10;;;22.30;48.00;;;;;;5016996;28;20291;-67
2023/07/03 03:18:50;;;;;;;15.65;10.40;;;22.30;48.00;;;;;;5016936;28;20211;-67
2023/07/03 03:21:17;;;;;;;14.07;9.88;;;22.30;48.10;;;;;;5034545;28;20246;-67
2023/07/03 03:23:46;;;;;;;14.75;10.10;;;22.30;47.80;;;;;;5016668;28;20224;-67
2023/07/03 03:26:14;;;;;;;12.77;9.50;;;22.30;47.70;;;;;;5017064;28;20211;-68
2023/07/03 03:28:42;;;;;;;15.00;10.00;;;22.30;47.70;;;;;;5016898;28;20212;-67
2023/07/03 03:31:10;;;;;;;16.65;10.80;;;22.40;47.70;;;;;;5017177;28;20223;-67
2023/07/03 03:33:43;;;;;;;16.02;10.85;;;22.40;48.30;;;;;;5016670;28;20274;-67
2023/07/03 03:36:10;;;;;;;14.85;10.00;;;22.40;47.60;;;;;;5011325;28;20640;-67
2023/07/03 03:38:37;;;;;;;14.23;10.30;;;22.40;47.50;;;;;;5016613;28;20189;-67
2023/07/03 03:41:05;;;;;;;13.88;10.23;;;22.50;47.60;;;;;;5016523;28;20204;-67
2023/07/03 03:43:38;;;;;;;15.52;10.52;;;22.50;47.60;;;;;;5016474;28;20215;-67
2023/07/03 03:46:09;;;;;;;15.68;10.20;;;22.50;47.30;;;;;;5031843;28;20220;-54
2023/07/03 03:48:37;;;;;;;14.38;10.60;;;22.50;47.30;;;;;;5016370;28;20216;-54
2023/07/03 03:51:07;;;;;;;13.73;10.55;;;22.50;47.20;;;;;;5016555;28;20203;-55
2023/07/03 03:53:35;;;;;;;14.65;10.32;;;22.50;47.20;;;;;;4996616;28;20197;-54
2023/07/03 03:56:03;;;;;;;13.25;9.93;;;22.50;47.20;;;;;;4996471;28;20672;-54
2023/07/03 03:58:33;;;;;;;15.20;10.60;;;22.60;47.20;;;;;;4997159;28;20665;-54
2023/07/03 04:01:02;;;;;;;14.35;10.10;;;22.60;47.10;;;;;;4996555;28;20224;-55
2023/07/03 04:03:29;;;;;;;15.20;9.85;;;22.60;47.10;;;;;;5014392;28;20211;-55
2023/07/03 04:05:56;;;;;;;16.75;10.98;;;22.60;46.90;;;;;;4996455;28;20207;-54
2023/07/03 04:08:23;;;;;;;14.45;9.98;;;22.60;47.00;;;;;;4996371;28;20231;-54
2023/07/03 04:10:50;;;;;;;13.15;9.75;;;22.60;47.00;;;;;;5013993;28;20203;-54
2023/07/03 04:13:17;;;;;;;13.95;10.18;;;22.60;47.10;;;;;;5013961;28;20220;-54
2023/07/03 04:15:54;;;;;;;14.10;10.32;;;22.60;47.20;;;;;;4996278;28;20244;-54
2023/07/03 04:18:23;;;;;;;17.30;11.70;;;22.60;47.10;;;;;;5014179;28;20177;-55
2023/07/03 04:20:51;;;;;;;13.85;9.90;;;22.60;47.10;;;;;;5013822;28;20199;-54
2023/07/03 04:23:18;;;;;;;14.70;10.23;;;22.60;47.20;;;;;;5014025;28;20217;-55
2023/07/03 04:25:45;;;;;;;12.88;10.18;;;22.60;47.10;;;;;;4985643;28;20214;-54
2023/07/03 04:28:13;;;;;;;14.13;10.23;;;22.60;47.10;;;;;;4996036;28;20227;-54
2023/07/03 04:30:40;;;;;;;16.35;9.98;;;22.60;47.00;;;;;;5013705;28;20258;-57
2023/07/03 04:33:07;;;;;;;14.85;10.05;;;22.60;47.10;;;;;;4996027;28;20236;-57
2023/07/03 04:35:36;;;;;;;14.30;10.48;;;22.60;47.10;;;;;;4996329;28;20217;-58
2023/07/03 04:38:04;;;;;;;14.35;10.88;;;22.60;47.10;;;;;;4996134;28;20205;-57
2023/07/03 04:40:31;;;;;;;15.07;10.18;;;22.60;46.60;;;;;;4996326;28;20259;-64
2023/07/03 04:42:58;;;;;;;13.88;10.18;;;22.50;46.60;;;;;;4992863;28;20728;-60
2023/07/03 04:45:26;;;;;;;14.45;10.02;;;22.50;46.50;;;;;;5013435;28;20200;-61
2023/07/03 04:47:53;;;;;;;15.10;10.20;;;22.50;46.30;;;;;;5014051;28;20223;-58
2023/07/03 04:50:24;;;;;;;16.15;10.18;;;22.50;46.60;;;;;;4995936;28;20287;-59
2023/07/03 04:52:53;;;;;;;16.33;11.00;;;22.50;46.40;;;;;;4995834;28;20224;-58
2023/07/03 04:55:21;;;;;;;14.23;9.93;;;22.40;46.30;;;;;;5013619;28;20224;-61
2023/07/03 04:57:48;;;;;;;15.90;10.50;;;22.40;46.40;;;;;;4997301;28;20574;-60
2023/07/03 05:00:17;;;;;;;17.23;10.38;;;22.30;46.50;;;;;;4999932;28;20204;-60
2023/07/03 05:02:44;;;;;;;15.25;10.27;;;22.20;46.80;;;;;;5017450;28;20216;-63
2023/07/03 05:05:11;;;;;;;14.70;9.93;;;22.20;46.90;;;;;;5013309;28;20569;-59
2023/07/03 05:07:39;;;;;;;18.65;10.50;;;22.20;46.90;;;;;;5019314;28;20713;-60
2023/07/03 05:10:09;;;;;;;15.23;10.40;;;22.20;46.90;;;;;;5037173;28;20196;-59
2023/07/03 05:12:36;;;;;;;17.27;10.55;;;22.10;46.90;;;;;;5020448;28;20215;-60
2023/07/03 05:15:03;;;;;;;14.82;10.05;;;22.10;47.50;;;;;;5019265;28;20204;-61
2023/07/03 05:17:32;;;;;;;13.85;9.80;;;22.10;47.50;;;;;;5035733;28;20196;-59
2023/07/03 05:19:59;;;;;;;16.83;9.90;;;22.00;47.40;;;;;;5019125;28;20204;-60
2023/07/03 05:22:26;;;;;;;16.08;10.23;;;22.00;47.70;;;;;;5019121;28;20700;-58
2023/07/03 05:24:55;;;;;;;15.20;10.07;;;22.00;47.90;;;;;;5019067;28;20231;-59
2023/07/03 05:27:24;;;;;;;15.25;10.13;;;22.00;47.50;;;;;;5018895;28;20216;-61
2023/07/03 05:29:51;;;;;;;14.70;9.50;;;22.00;48.20;;;;;;5019000;28;20203;-60
2023/07/03 05:32:18;;;;;;;13.75;9.98;;;22.00;48.00;;;;;;5036581;28;20288;-61
2023/07/03 05:34:45;;;;;;;13.48;9.20;;;21.90;48.00;;;;;;5018880;28;20200;-60
2023/07/03 05:37:11;;;;;;;13.85;9.60;;;21.90;48.10;;;;;;5036595;28;20274;-61
2023/07/03 05:39:38;;;;;;;14.90;9.60;;;22.00;48.60;;;;;;5018787;28;20207;-60
2023/07/03 05:42:23;;;;;;;13.88;9.48;;;21.90;48.70;;;;;;5020437;28;20206;-58
2023/07/03 05:44:51;;;;;;;13.50;8.60;;;22.00;48.60;;;;;;5017657;28;20307;-58
2023/07/03 05:47:18;;;;;;;13.50;9.63;;;22.00;48.40;;;;;;5018473;28;20286;-57
2023/07/03 05:49:47;;;;;;;16.58;10.10;;;22.10;48.20;;;;;;5036355;28;20193;-58
2023/07/03 05:52:14;;;;;;;15.82;9.70;;;22.20;48.40;;;;;;5018492;28;20235;-58
2023/07/03 05:54:41;;;;;;;15.65;9.65;;;22.30;48.40;;;;;;5036597;28;20192;-58
2023/07/03 05:57:10;;;;;;;13.13;9.02;;;22.30;48.20;;;;;;5019641;28;20525;-58
2023/07/03 05:59:37;;;;;;;14.23;9.23;;;22.40;48.20;;;;;;5025137;28;20188;-59
2023/07/03 06:02:08;;;;;;;14.73;9.00;;;22.50;48.20;;;;;;5018376;28;20212;-58
2023/07/03 06:04:35;;;;;;;14.90;9.25;;;22.60;48.00;;;;;;5018398;28;20200;-58
2023/07/03 06:07:03;;;;;;;13.88;9.10;;;22.60;47.80;;;;;;5018278;28;20295;-58
2023/07/03 06:09:30;;;;;;;13.65;8.82;;;22.70;47.90;;;;;;5035475;28;20212;-58
2023/07/03 06:11:57;;;;;;;13.02;8.75;;;22.70;47.80;;;;;;5018150;28;20239;-58
2023/07/03 06:14:24;;;;;;;12.27;8.80;;;22.90;47.80;;;;;;5036043;28;20535;-58
2023/07/03 06:16:53;;;;;;;13.07;8.88;;;22.90;47.70;;;;;;5035816;28;20195;-58
2023/07/03 06:19:22;;;;;;;13.77;9.05;;;22.90;47.50;;;;;;5018007;28;20243;-58
2023/07/03 06:21:49;;;;;;;12.82;8.40;;;23.00;47.40;;;;;;5017974;28;20219;-58
2023/07/03 06:24:16;;;;;;;13.73;8.63;;;23.10;47.40;;;;;;5017948;28;20207;-58
2023/07/03 06:26:44;;;;;;;10.95;8.02;;;23.10;47.20;;;;;;5017940;28;20254;-58
2023/07/03 06:29:12;;;;;;;12.40;8.60;;;23.20;47.10;;;;;;5035961;28;20208;-58
2023/07/03 06:31:39;;;;;;;12.65;8.30;;;23.30;47.10;;;;;;5017714;28;20254;-58
2023/07/03 06:34:06;;;;;;;12.98;8.75;;;23.30;47.00;;;;;;5017687;28;20661;-58
2023/07/03 06:36:34;;;;;;;12.57;8.48;;;23.30;47.00;;;;;;5035475;28;20192;-58
2023/07/03 06:39:04;;;;;;;13.80;8.90;;;23.30;46.90;;;;;;5017633;28;20204;-58
2023/07/03 06:41:34;;;;;;;12.60;8.45;;;23.40;46.90;;;;;;5035562;28;20208;-58
2023/07/03 06:44:01;;;;;;;13.40;8.65;;;23.40;46.80;;;;;;5035432;28;20200;-58
2023/07/03 06:46:28;;;;;;;11.45;8.73;;;23.40;46.80;;;;;;5035304;28;20545;-58
2023/07/03 06:48:55;;;;;;;11.73;8.52;;;23.50;46.70;;;;;;5017303;28;20222;-58
2023/07/03 06:51:23;;;;;;;11.13;7.82;;;23.50;46.70;;;;;;5035089;28;20254;-58
2023/07/03 06:53:51;;;;;;;12.55;8.50;;;23.50;46.60;;;;;;5017389;28;20206;-58
2023/07/03 06:56:18;;;;;;;13.85;8.38;;;23.50;47.20;;;;;;5017337;28;20192;-58
2023/07/03 06:58:47;;;;;;;11.73;8.40;;;23.60;46.60;;;;;;5017280;28;20215;-58
2023/07/03 07:01:17;;;;;;;10.93;8.07;;;23.60;46.50;;;;;;5017158;28;20200;-58
2023/07/03 07:03:45;;;;;;;12.63;8.82;;;23.60;46.60;;;;;;5034957;28;20199;-58
2023/07/03 07:06:14;;;;;;;18.05;9.60;;;23.60;46.70;;;;;;5017182;28;20291;-58
2023/07/03 07:08:41;;;;;;;14.52;9.10;;;23.60;46.90;;;;;;5017122;28;20581;-58
2023/07/03 07:11:10;;;;;;;13.80;8.68;;;23.70;46.80;;;;;;5017291;28;20204;-58
2023/07/03 07:13:39;;;;;;;14.35;8.52;;;23.70;46.90;;;;;;5017091;28;20196;-58
2023/07/03 07:16:05;;;;;;;11.13;8.00;;;23.70;46.90;;;;;;5017487;28;20295;-60
2023/07/03 07:18:33;;;;;;;11.07;7.80;;;23.80;46.90;;;;;;5018159;28;20687;-60
2023/07/03 07:21:01;;;;;;;12.73;7.75;;;23.80;46.80;;;;;;5034103;28;20203;-60
2023/07/03 07:23:28;;;;;;;11.55;8.27;;;23.80;46.70;;;;;;5016887;28;20224;-59
2023/07/03 07:25:55;;;;;;;12.70;7.85;;;23.90;46.60;;;;;;5034503;28;20188;-59
2023/07/03 07:28:24;;;;;;;12.05;7.78;;;23.90;46.60;;;;;;5016713;28;20239;-59
2023/07/03 07:30:50;;;;;;;11.13;7.70;;;23.90;46.60;;;;;;5016657;28;20604;-59
2023/07/03 07:33:17;;;;;;;10.57;7.35;;;24.00;46.50;;;;;;5016551;28;20226;-58
2023/07/03 07:35:45;;;;;;;10.73;7.72;;;24.00;46.40;;;;;;5016552;28;20206;-59
2023/07/03 07:38:13;;;;;;;10.13;7.35;;;24.10;46.30;;;;;;5016892;28;20286;-63
2023/07/03 07:40:40;;;;;;;12.57;7.82;;;24.10;46.50;;;;;;5016599;28;20200;-64
2023/07/03 07:43:07;;;;;;;10.32;7.38;;;24.10;46.40;;;;;;5016382;28;20219;-63
2023/07/03 07:45:37;;;;;;;10.85;7.47;;;24.10;46.80;;;;;;5016390;28;20211;-62
2023/07/03 07:48:05;;;;;;;11.65;7.57;;;24.10;46.70;;;;;;5034009;28;20192;-63
2023/07/03 07:50:35;;;;;;;9.60;7.28;;;24.20;47.00;;;;;;5034064;28;20198;-63
2023/07/03 07:53:02;;;;;;;11.18;7.55;;;24.20;47.10;;;;;;5016290;28;20754;-63
2023/07/03 07:55:29;;;;;;;11.30;7.30;;;24.20;47.10;;;;;;5016261;28;20220;-63
2023/07/03 07:57:56;;;;;;;11.50;7.80;;;24.20;46.90;;;;;;5016568;28;20298;-63
2023/07/03 08:00:23;;;;;;;11.95;7.40;;;24.20;47.00;;;;;;5016316;28;20204;-63
2023/07/03 08:02:52;;;;;;;10.35;7.22;;;24.20;47.00;;;;;;5016036;28;20226;-63
2023/07/03 08:05:18;;;;;;;8.10;6.50;;;24.10;46.80;;;;;;5033829;28;20672;-63
2023/07/03 08:07:45;;;;;;;10.15;6.95;;;24.10;46.90;;;;;;5016105;28;20200;-63
2023/07/03 08:10:13;;;;;;;11.07;7.07;;;24.10;46.60;;;;;;5015970;28;20776;-63
2023/07/03 08:12:40;;;;;;;11.32;7.13;;;24.20;46.90;;;;;;5015975;28;20719;-63
2023/07/03 08:15:08;;;;;;;9.50;6.88;;;24.20;46.40;;;;;;5015894;28;20200;-63
2023/07/03 08:17:35;;;;;;;7.60;6.35;;;24.20;46.10;;;;;;5015923;28;20196;-63
2023/07/03 08:20:08;;;;;;;11.00;7.25;;;24.20;46.10;;;;;;5033628;28;20599;-62
2023/07/03 08:22:35;;;;;;;9.68;6.85;;;24.20;46.30;;;;;;5033639;28;20212;-62
2023/07/03 08:25:02;;;;;;;10.18;6.82;;;24.30;46.50;;;;;;5015845;28;20211;-63
2023/07/03 08:27:30;;;;;;;10.20;7.03;;;24.50;46.30;;;;;;5015787;28;20561;-62
2023/07/03 08:29:57;;;;;;;12.73;7.57;;;24.60;46.10;;;;;;5016009;28;20262;-61
2023/07/03 08:32:24;;;;;;;10.98;7.38;;;24.60;46.00;;;;;;5033181;28;20298;-63
2023/07/03 08:34:51;;;;;;;10.73;6.93;;;24.60;45.90;;;;;;5016229;28;20223;-63
2023/07/03 08:37:20;;;;;;;9.73;7.22;;;24.60;45.90;;;;;;5015694;28;20203;-63
2023/07/03 08:39:47;;;;;;;9.13;6.78;;;24.50;45.70;;;;;;5017523;28;20196;-63
2023/07/03 08:42:15;;;;;;;10.73;7.28;;;24.60;45.80;;;;;;5033586;28;20219;-63
2023/07/03 08:44:43;;;;;;;8.40;7.10;;;24.60;45.60;;;;;;5020188;28;20614;-64
2023/07/03 08:47:12;;;;;;;9.68;6.97;;;24.60;45.60;;;;;;5015798;28;20669;-62
2023/07/03 08:49:40;;;;;;;11.15;7.85;;;24.60;45.50;;;;;;5015498;28;20216;-63
2023/07/03 08:52:07;;;;;;;11.23;6.80;;;24.50;45.50;;;;;;5015450;28;20226;-63
2023/07/03 08:54:36;;;;;;;10.88;7.10;;;24.60;45.30;;;;;;5015502;28;20199;-63
2023/07/03 08:57:04;;;;;;;9.02;6.47;;;24.70;45.00;;;;;;5015496;28;20206;-63
2023/07/03 08:59:31;;;;;;;8.50;6.90;;;24.90;44.90;;;;;;5033159;28;20596;-62
2023/07/03 09:02:00;;;;;;;11.02;7.45;;;25.00;44.60;;;;;;5015424;28;20227;-63
2023/07/03 09:04:39;;;;;;;10.05;7.32;;;25.10;44.60;;;;;;5033117;28;20184;-63
2023/07/03 09:07:08;;;;;;;9.07;6.70;;;25.10;44.50;;;;;;5033447;28;20184;-63
2023/07/03 09:09:39;;;;;;;9.85;7.18;;;25.00;44.40;;;;;;5015359;28;20847;-63
2023/07/03 09:12:08;;;;;;;9.45;6.82;;;25.00;44.60;;;;;;5015429;28;20223;-63
2023/07/03 09:14:38;;;;;;;8.85;6.93;;;24.90;44.70;;;;;;5015346;28;20283;-63
2023/07/03 09:17:07;;;;;;;9.48;7.07;;;24.90;44.80;;;;;;5015374;28;20203;-63
2023/07/03 09:19:34;;;;;;;9.73;7.00;;;24.90;45.50;;;;;;5015319;28;20200;-63
2023/07/03 09:22:02;;;;;;;10.35;7.05;;;24.90;45.00;;;;;;5032901;28;20219;-63
2023/07/03 09:24:31;;;;;;;10.85;7.32;;;24.90;45.00;;;;;;5033152;28;20235;-63
2023/07/03 09:27:06;;;;;;;9.60;6.93;;;24.90;44.90;;;;;;5015439;28;20657;-63
2023/07/03 09:29:33;;;;;;;11.48;7.15;;;25.00;44.60;;;;;;5015222;28;20219;-63
2023/07/03 09:32:00;;;;;;;9.70;6.95;;;25.10;44.30;;;;;;5032798;28;20222;-62
2023/07/03 09:34:28;;;;;;;8.45;6.40;;;25.20;44.10;;;;;;5015186;28;20200;-63
2023/07/03 09:36:59;;;;;;;8.90;6.70;;;25.30;44.00;;;;;;5015138;28;20290;-63
2023/07/03 09:39:26;;;;;;;11.85;7.25;;;25.30;43.90;;;;;;5015127;28;20680;-62
2023/07/03 09:41:54;;;;;;;9.70;7.15;;;25.20;43.80;;;;;;5015134;28;20224;-63
2023/07/03 09:44:23;;;;;;;9.02;6.90;;;25.20;43.90;;;;;;5017086;28;20661;-63
2023/07/03 09:46:50;;;;;;;9.75;7.07;;;25.20;44.00;;;;;;5018797;28;20219;-63
2023/07/03 09:49:20;;;;;;;8.60;6.90;;;25.20;43.90;;;;;;5018992;28;20224;-62
2023/07/03 09:51:50;;;;;;;9.93;6.72;;;25.20;44.00;;;;;;5018586;28;20220;-62
2023/07/03 09:54:21;;;;;;;8.23;6.53;;;25.20;43.90;;;;;;5036278;28;20188;-63
2023/07/03 09:56:49;;;;;;;10.80;6.93;;;25.30;43.90;;;;;;5036322;28;20280;-63
2023/07/03 09:59:19;;;;;;;10.88;7.07;;;25.40;43.60;;;;;;5018403;28;20238;-63
2023/07/03 10:01:47;;;;;;;9.88;7.47;;;25.40;43.30;;;;;;5036041;28;20216;-63
2023/07/03 10:04:16;;;;;;;11.13;6.90;;;25.50;43.40;;;;;;5018316;28;20245;-63
2023/07/03 10:06:51;;;;;;;9.73;7.00;;;25.50;43.20;;;;;;5035961;28;20226;-63
2023/07/03 10:09:24;;;;;;;8.32;6.45;;;25.60;43.10;;;;;;5035995;28;20203;-62
2023/07/03 10:11:54;;;;;;;9.75;6.30;;;25.60;43.10;;;;;;5018190;28;20273;-62
2023/07/03 10:14:24;;;;;;;9.13;6.70;;;25.50;43.20;;;;;;5018238;28;20204;-63
2023/07/03 10:16:52;;;;;;;9.38;6.70;;;25.50;43.30;;;;;;5018082;28;20202;-63
2023/07/03 10:19:20;;;;;;;8.73;6.60;;;25.40;43.30;;;;;;5018004;28;20645;-63
2023/07/03 10:21:47;;;;;;;9.68;6.95;;;25.40;43.30;;;;;;5035763;28;20208;-63
2023/07/03 10:24:14;;;;;;;9.35;6.72;;;25.40;43.50;;;;;;5035942;28;20215;-63
2023/07/03 10:26:44;;;;;;;8.82;6.68;;;25.40;43.50;;;;;;5035681;28;20200;-63
2023/07/03 10:29:13;;;;;;;10.40;6.50;;;25.40;43.70;;;;;;5017827;28;20219;-63
2023/07/03 10:31:46;;;;;;;8.35;6.47;;;25.40;43.60;;;;;;5018050;28;20557;-63
2023/07/03 10:34:17;;;;;;;8.98;6.18;;;25.40;43.60;;;;;;5017824;28;20202;-63
2023/07/03 10:36:44;;;;;;;9.05;6.45;;;25.40;43.50;;;;;;5017718;28;20184;-63
2023/07/03 10:39:14;;;;;;;9.70;6.65;;;25.40;43.40;;;;;;5017692;28;20196;-63
2023/07/03 10:41:44;;;;;;;7.93;6.40;;;25.40;44.00;;;;;;5017598;28;20696;-62
2023/07/03 10:44:12;;;;;;;9.65;6.20;;;25.50;43.20;;;;;;5017879;28;20204;-63
2023/07/03 10:46:42;;;;;;;7.30;6.25;;;25.60;43.00;;;;;;5017495;28;20650;-63
2023/07/03 10:49:12;;;;;;;9.15;6.05;;;25.60;43.00;;;;;;5035165;28;20681;-63
2023/07/03 10:51:43;;;;;;;7.78;6.10;;;25.60;42.70;;;;;;5018223;28;20216;-63
2023/07/03 10:54:14;;;;;;;8.45;6.32;;;25.60;42.80;;;;;;5017345;28;20651;-63
2023/07/03 10:56:42;;;;;;;8.15;6.00;;;25.60;42.90;;;;;;5017642;28;20194;-58
2023/07/03 10:59:12;;;;;;;8.02;5.57;;;25.60;42.80;;;;;;5035056;28;20192;-62
2023/07/03 11:01:41;;;;;;;9.13;6.03;;;25.50;43.10;;;;;;5017291;28;20704;-59
2023/07/03 11:04:14;;;;;;;8.25;6.05;;;25.40;43.20;;;;;;5017241;28;20206;-59
2023/07/03 11:06:45;;;;;;;8.82;6.43;;;25.40;43.20;;;;;;5017161;28;20216;-59
2023/07/03 11:09:14;;;;;;;8.02;6.10;;;25.40;43.20;;;;;;5017108;28;20303;-59
2023/07/03 11:11:45;;;;;;;8.23;5.85;;;25.40;43.10;;;;;;5034705;28;20219;-58
2023/07/03 11:14:19;;;;;;;9.30;6.20;;;25.40;43.10;;;;;;5034854;28;20195;-58
2023/07/03 11:16:53;;;;;;;8.15;5.63;;;25.40;43.30;;;;;;5035181;28;20183;-58
2023/07/03 11:19:25;;;;;;;7.75;5.75;;;25.40;42.90;;;;;;5035468;28;20176;-58
2023/07/03 11:21:55;;;;;;;7.68;6.00;;;25.40;43.00;;;;;;5034834;28;20220;-58
2023/07/03 11:24:25;;;;;;;7.10;5.00;;;25.40;43.10;;;;;;5039422;28;20542;-59
2023/07/03 11:26:55;;;;;;;7.60;5.32;;;25.40;43.40;;;;;;5034611;28;20192;-58
2023/07/03 11:29:22;;;;;;;7.90;5.68;;;25.40;43.30;;;;;;5016803;28;20219;-58
2023/07/03 11:31:50;;;;;;;6.25;5.18;;;25.50;43.10;;;;;;5016699;28;20220;-58
2023/07/03 11:34:18;;;;;;;7.22;5.43;;;25.50;43.10;;;;;;5016685;28;20200;-58
2023/07/03 11:36:46;;;;;;;7.22;5.32;;;25.50;42.90;;;;;;5034349;28;20239;-58
2023/07/03 11:39:19;;;;;;;6.68;5.28;;;25.50;42.60;;;;;;5041544;22;20256;-70
2023/07/03 11:41:50;;;;;;;7.95;5.35;;;25.60;43.20;;;;;;4994914;28;20173;-69
2023/07/03 11:44:30;;;;;;;6.82;5.30;;;25.60;43.30;;;;;;4995207;28;20240;-69
2023/07/03 11:46:58;;;;;;;5.75;4.72;;;25.60;42.60;;;;;;4994937;28;20185;-69
2023/07/03 11:49:27;;;;;;;7.47;5.22;;;25.60;42.70;;;;;;4977246;28;20221;-69
2023/07/03 11:52:00;;;;;;;6.47;4.75;;;25.50;42.50;;;;;;4994833;28;20185;-70
2023/07/03 11:54:31;;;;;;;6.40;5.32;;;25.60;42.60;;;;;;5052892;23;20265;-79
2023/07/03 11:57:03;;;;;;;6.00;4.65;;;25.60;42.50;;;;;;5003024;28;20215;-80
2023/07/03 11:59:36;;;;;;;6.53;5.13;;;25.60;42.50;;;;;;5018840;28;20208;-80
2023/07/03 12:02:46;;;;;;;5.05;4.55;;;25.60;42.50;;;;;;5004551;28;20199;-80
2023/07/03 12:05:46;;;;;;;5.90;4.50;;;25.60;42.30;;;;;;5019620;28;20202;-80
2023/07/03 12:08:15;;;;;;;8.32;4.65;;;25.60;42.20;;;;;;5019178;28;20218;-80
2023/07/03 12:10:46;;;;;;;5.25;4.32;;;25.60;42.10;;;;;;5036565;28;20220;-80
2023/07/03 12:13:34;;;;;;;6.45;4.40;;;25.60;42.10;;;;;;5019250;28;20200;-80
2023/07/03 12:16:02;;;;;;;6.65;4.15;;;25.60;42.40;;;;;;5019819;28;20195;-80
2023/07/03 12:18:29;;;;;;;5.65;4.25;;;25.60;42.50;;;;;;5019860;28;20310;-80
2023/07/03 12:20:59;;;;;;;6.00;4.45;;;25.60;42.50;;;;;;5002869;28;20192;-80
2023/07/03 12:23:34;;;;;;;6.85;5.03;;;25.60;42.50;;;;;;5019275;28;20200;-80
2023/07/03 12:26:03;;;;;;;6.68;4.57;;;25.60;42.50;;;;;;5019212;28;20250;-80
2023/07/03 12:28:30;;;;;;;6.05;4.57;;;25.60;42.50;;;;;;5036879;28;20200;-81
2023/07/03 12:31:13;;;;;;;5.70;4.53;;;25.60;42.60;;;;;;5002831;28;20224;-81
2023/07/03 12:33:52;;;;;;;6.93;4.65;;;25.60;42.70;;;;;;5017358;28;20234;-80
2023/07/03 12:36:23;;;;;;;7.35;4.97;;;25.60;42.70;;;;;;5018994;28;20614;-80
2023/07/03 12:38:50;;;;;;;4.78;3.97;;;25.60;42.70;;;;;;5018680;28;20711;-80
2023/07/03 12:41:24;;;;;;;6.55;4.55;;;25.60;42.70;;;;;;5019319;28;20199;-80
2023/07/03 12:43:52;;;;;;;6.82;4.65;;;25.60;42.80;;;;;;5019249;28;20200;-80